Tampa, Florida
Traffic Map
Current Weather Conditions
Tampa, Florida
Few Clouds
Few Clouds
26°
Feels Like: 28°
Wind Chill: 26° Ceiling: Unl
Heat Index: 28° Visibility: 10mi
Dew Point: 24° Wind: 5mph
Humidity: 90% Direction: 60° (ENE)
Pressure: 29.93in Gusts: 0mph
Raw Report DataKTPA 290853Z 06004KT 10SM FEW023 26/24 A2993 RMK AO2 SLP133 T02610244 55007
Traffic Incident Summary
Active as of:
Severity:
Category:
InformationThere was an issue retrieving the traffic information for this location. Please try a different location or try again shortly.
Advertisements
Track Severe Weather on mobile